sensor_id;sensor_type;location;lat;lon;timestamp;pressure;altitude;pressure_sealevel;temperature;humidity
10606;BME280;5350;42.698;23.148;2023-05-03T00:01:14;93901.72;;;12.96;52.50
10606;BME280;5350;42.698;23.148;2023-05-03T00:03:41;93893.50;;;12.97;52.42
10606;BME280;5350;42.698;23.148;2023-05-03T00:06:11;93902.72;;;12.86;52.87
10606;BME280;5350;42.698;23.148;2023-05-03T00:08:38;93888.41;;;12.87;52.86
10606;BME280;5350;42.698;23.148;2023-05-03T00:11:06;93901.91;;;12.99;53.08
10606;BME280;5350;42.698;23.148;2023-05-03T00:13:33;93903.38;;;12.92;53.42
10606;BME280;5350;42.698;23.148;2023-05-03T00:16:00;93908.38;;;12.93;52.74
10606;BME280;5350;42.698;23.148;2023-05-03T00:18:27;93907.91;;;12.91;52.93
10606;BME280;5350;42.698;23.148;2023-05-03T00:20:54;93890.44;;;12.68;52.79
10606;BME280;5350;42.698;23.148;2023-05-03T00:23:21;93903.81;;;12.71;53.40
10606;BME280;5350;42.698;23.148;2023-05-03T00:25:51;93897.47;;;12.59;53.03
10606;BME280;5350;42.698;23.148;2023-05-03T00:28:19;93905.06;;;12.60;52.89
10606;BME280;5350;42.698;23.148;2023-05-03T00:30:46;93920.03;;;12.65;52.81
10606;BME280;5350;42.698;23.148;2023-05-03T00:33:13;93912.03;;;12.70;52.88
10606;BME280;5350;42.698;23.148;2023-05-03T00:35:39;93918.19;;;12.65;52.90
10606;BME280;5350;42.698;23.148;2023-05-03T00:38:06;93910.44;;;12.69;52.39
10606;BME280;5350;42.698;23.148;2023-05-03T00:40:33;93909.88;;;12.72;52.98
10606;BME280;5350;42.698;23.148;2023-05-03T00:42:59;93908.59;;;12.69;52.84
10606;BME280;5350;42.698;23.148;2023-05-03T00:45:28;93900.09;;;12.59;52.83
10606;BME280;5350;42.698;23.148;2023-05-03T00:47:55;93905.06;;;12.60;53.55
10606;BME280;5350;42.698;23.148;2023-05-03T00:50:22;93905.38;;;12.59;52.92
10606;BME280;5350;42.698;23.148;2023-05-03T00:52:50;93899.03;;;12.60;53.04
10606;BME280;5350;42.698;23.148;2023-05-03T00:55:16;93902.34;;;12.52;53.69
10606;BME280;5350;42.698;23.148;2023-05-03T00:57:43;93897.06;;;12.52;54.02
10606;BME280;5350;42.698;23.148;2023-05-03T01:00:11;93899.22;;;12.50;54.19
10606;BME280;5350;42.698;23.148;2023-05-03T01:02:40;93898.63;;;12.53;53.72
10606;BME280;5350;42.698;23.148;2023-05-03T01:05:07;93893.44;;;12.48;53.51
10606;BME280;5350;42.698;23.148;2023-05-03T01:07:40;93900.38;;;12.44;53.54
10606;BME280;5350;42.698;23.148;2023-05-03T01:10:20;93882.03;;;12.39;54.02
10606;BME280;5350;42.698;23.148;2023-05-03T01:12:54;93883.09;;;12.38;53.93
10606;BME280;5350;42.698;23.148;2023-05-03T01:15:30;93881.22;;;12.25;52.99
10606;BME280;5350;42.698;23.148;2023-05-03T01:18:13;93876.16;;;12.15;53.77
10606;BME280;5350;42.698;23.148;2023-05-03T01:20:46;93878.97;;;12.04;52.96
10606;BME280;5350;42.698;23.148;2023-05-03T01:23:20;93878.06;;;11.95;53.42
10606;BME280;5350;42.698;23.148;2023-05-03T01:25:51;93880.19;;;11.80;54.09
10606;BME280;5350;42.698;23.148;2023-05-03T01:28:18;93885.66;;;11.70;53.89
10606;BME280;5350;42.698;23.148;2023-05-03T01:30:46;93887.50;;;11.69;54.55
10606;BME280;5350;42.698;23.148;2023-05-03T01:33:20;93882.72;;;11.71;53.70
10606;BME280;5350;42.698;23.148;2023-05-03T01:35:53;93885.19;;;11.63;54.44
10606;BME280;5350;42.698;23.148;2023-05-03T01:38:23;93885.50;;;11.61;54.38
10606;BME280;5350;42.698;23.148;2023-05-03T01:40:52;93879.72;;;11.59;54.12
10606;BME280;5350;42.698;23.148;2023-05-03T01:43:21;93883.22;;;11.55;54.28
10606;BME280;5350;42.698;23.148;2023-05-03T01:45:48;93856.56;;;11.43;54.23
10606;BME280;5350;42.698;23.148;2023-05-03T01:48:17;93875.63;;;11.53;54.47
10606;BME280;5350;42.698;23.148;2023-05-03T01:50:44;93885.41;;;11.34;54.72
10606;BME280;5350;42.698;23.148;2023-05-03T01:53:11;93878.97;;;11.40;54.61
10606;BME280;5350;42.698;23.148;2023-05-03T01:55:37;93881.91;;;11.39;54.79
10606;BME280;5350;42.698;23.148;2023-05-03T01:58:06;93876.91;;;11.37;54.96
10606;BME280;5350;42.698;23.148;2023-05-03T02:00:32;93870.72;;;11.47;54.45
10606;BME280;5350;42.698;23.148;2023-05-03T02:02:59;93858.44;;;11.56;53.46
10606;BME280;5350;42.698;23.148;2023-05-03T02:05:26;93862.34;;;11.58;53.94
10606;BME280;5350;42.698;23.148;2023-05-03T02:07:53;93864.09;;;11.49;54.01
10606;BME280;5350;42.698;23.148;2023-05-03T02:10:19;93857.06;;;11.45;54.58
10606;BME280;5350;42.698;23.148;2023-05-03T02:12:46;93867.97;;;11.52;54.04
10606;BME280;5350;42.698;23.148;2023-05-03T02:15:14;93870.63;;;11.52;53.56
10606;BME280;5350;42.698;23.148;2023-05-03T02:17:41;93871.50;;;11.47;54.28
10606;BME280;5350;42.698;23.148;2023-05-03T02:20:10;93869.13;;;11.46;54.75
10606;BME280;5350;42.698;23.148;2023-05-03T02:22:37;93857.41;;;11.38;55.08
10606;BME280;5350;42.698;23.148;2023-05-03T02:25:04;93859.56;;;11.36;55.38
10606;BME280;5350;42.698;23.148;2023-05-03T02:27:31;93861.25;;;11.27;54.93
10606;BME280;5350;42.698;23.148;2023-05-03T02:29:58;93856.00;;;11.27;55.58
10606;BME280;5350;42.698;23.148;2023-05-03T02:32:26;93867.13;;;11.24;55.73
10606;BME280;5350;42.698;23.148;2023-05-03T02:34:53;93869.69;;;11.10;55.39
10606;BME280;5350;42.698;23.148;2023-05-03T02:37:20;93860.72;;;11.11;55.71
10606;BME280;5350;42.698;23.148;2023-05-03T02:39:47;93867.03;;;11.10;56.09
10606;BME280;5350;42.698;23.148;2023-05-03T02:42:13;93865.25;;;11.06;56.52
10606;BME280;5350;42.698;23.148;2023-05-03T02:44:40;93874.25;;;11.05;56.16
10606;BME280;5350;42.698;23.148;2023-05-03T02:47:08;93880.16;;;11.15;56.28
10606;BME280;5350;42.698;23.148;2023-05-03T02:49:36;93880.56;;;11.04;56.22
10606;BME280;5350;42.698;23.148;2023-05-03T02:52:02;93893.38;;;11.10;55.85
10606;BME280;5350;42.698;23.148;2023-05-03T02:54:29;93869.63;;;10.97;56.58
10606;BME280;5350;42.698;23.148;2023-05-03T02:56:56;93874.59;;;10.98;57.13
10606;BME280;5350;42.698;23.148;2023-05-03T02:59:22;93880.56;;;10.85;57.46
10606;BME280;5350;42.698;23.148;2023-05-03T03:01:49;93874.44;;;10.90;57.66
10606;BME280;5350;42.698;23.148;2023-05-03T03:04:16;93868.03;;;10.77;58.01
10606;BME280;5350;42.698;23.148;2023-05-03T03:06:44;93868.84;;;10.78;58.20
10606;BME280;5350;42.698;23.148;2023-05-03T03:09:11;93886.50;;;10.72;58.12
10606;BME280;5350;42.698;23.148;2023-05-03T03:11:38;93885.75;;;10.72;58.18
10606;BME280;5350;42.698;23.148;2023-05-03T03:14:04;93875.22;;;10.72;58.48
10606;BME280;5350;42.698;23.148;2023-05-03T03:16:31;93891.00;;;10.72;58.58
10606;BME280;5350;42.698;23.148;2023-05-03T03:18:58;93885.41;;;10.78;58.21
10606;BME280;5350;42.698;23.148;2023-05-03T03:21:24;93888.31;;;10.77;58.17
10606;BME280;5350;42.698;23.148;2023-05-03T03:23:55;93889.88;;;10.78;58.21
10606;BME280;5350;42.698;23.148;2023-05-03T03:26:22;93885.97;;;10.75;58.77
10606;BME280;5350;42.698;23.148;2023-05-03T03:28:48;93881.22;;;10.54;59.03
10606;BME280;5350;42.698;23.148;2023-05-03T03:31:15;93891.75;;;10.54;59.49
10606;BME280;5350;42.698;23.148;2023-05-03T03:33:42;93888.41;;;10.48;59.77
10606;BME280;5350;42.698;23.148;2023-05-03T03:36:09;93890.75;;;10.50;59.64
10606;BME280;5350;42.698;23.148;2023-05-03T03:38:36;93902.34;;;10.49;60.20
10606;BME280;5350;42.698;23.148;2023-05-03T03:41:04;93856.81;;;10.29;60.71
10606;BME280;5350;42.698;23.148;2023-05-03T03:43:31;93910.59;;;10.61;60.16
10606;BME280;5350;42.698;23.148;2023-05-03T03:45:58;93899.63;;;10.54;60.60
10606;BME280;5350;42.698;23.148;2023-05-03T03:48:24;93906.56;;;10.68;60.35
10606;BME280;5350;42.698;23.148;2023-05-03T03:50:51;93907.47;;;10.59;60.16
10606;BME280;5350;42.698;23.148;2023-05-03T03:53:18;93903.50;;;10.61;60.48
10606;BME280;5350;42.698;23.148;2023-05-03T03:55:45;93906.78;;;10.72;60.58
10606;BME280;5350;42.698;23.148;2023-05-03T03:58:13;93917.03;;;10.73;60.44
10606;BME280;5350;42.698;23.148;2023-05-03T04:00:40;93916.03;;;10.69;60.33
10606;BME280;5350;42.698;23.148;2023-05-03T04:03:07;93911.34;;;10.85;60.06
10606;BME280;5350;42.698;23.148;2023-05-03T04:05:33;93917.63;;;10.89;60.11
10606;BME280;5350;42.698;23.148;2023-05-03T04:08:00;93919.69;;;10.92;60.40
10606;BME280;5350;42.698;23.148;2023-05-03T04:10:27;93917.06;;;10.92;59.58
10606;BME280;5350;42.698;23.148;2023-05-03T04:12:54;93925.31;;;11.04;59.50
10606;BME280;5350;42.698;23.148;2023-05-03T04:15:22;93927.88;;;11.09;59.13
10606;BME280;5350;42.698;23.148;2023-05-03T04:17:48;93919.00;;;11.05;59.94
10606;BME280;5350;42.698;23.148;2023-05-03T04:20:15;93927.88;;;11.09;59.96
10606;BME280;5350;42.698;23.148;2023-05-03T04:22:43;93923.53;;;10.99;59.75
10606;BME280;5350;42.698;23.148;2023-05-03T04:25:10;93927.53;;;11.15;59.13
10606;BME280;5350;42.698;23.148;2023-05-03T04:27:38;93933.50;;;11.21;59.48
10606;BME280;5350;42.698;23.148;2023-05-03T04:30:06;93945.13;;;11.20;58.98
10606;BME280;5350;42.698;23.148;2023-05-03T04:32:35;93945.31;;;11.23;59.19
10606;BME280;5350;42.698;23.148;2023-05-03T04:35:02;93956.34;;;11.25;59.18
10606;BME280;5350;42.698;23.148;2023-05-03T04:37:29;93922.63;;;11.09;59.45
10606;BME280;5350;42.698;23.148;2023-05-03T04:39:56;93939.91;;;11.34;59.39
10606;BME280;5350;42.698;23.148;2023-05-03T04:42:23;93953.84;;;11.53;59.74
10606;BME280;5350;42.698;23.148;2023-05-03T04:44:50;93954.50;;;11.63;60.38
10606;BME280;5350;42.698;23.148;2023-05-03T04:47:17;93961.97;;;11.75;60.46
10606;BME280;5350;42.698;23.148;2023-05-03T04:49:45;93970.59;;;11.80;59.70
10606;BME280;5350;42.698;23.148;2023-05-03T04:52:12;93967.78;;;11.90;59.37
10606;BME280;5350;42.698;23.148;2023-05-03T04:54:39;93971.41;;;11.94;60.95
10606;BME280;5350;42.698;23.148;2023-05-03T04:57:06;93970.44;;;11.90;61.96
10606;BME280;5350;42.698;23.148;2023-05-03T04:59:33;93977.69;;;11.98;62.52
10606;BME280;5350;42.698;23.148;2023-05-03T05:02:00;93979.66;;;12.07;62.81
10606;BME280;5350;42.698;23.148;2023-05-03T05:04:27;93986.56;;;12.02;58.91
10606;BME280;5350;42.698;23.148;2023-05-03T05:06:55;93999.19;;;12.06;59.07
10606;BME280;5350;42.698;23.148;2023-05-03T05:09:25;93998.09;;;11.74;63.03
10606;BME280;5350;42.698;23.148;2023-05-03T05:11:52;93998.16;;;11.88;62.11
10606;BME280;5350;42.698;23.148;2023-05-03T05:14:19;93994.28;;;11.99;62.18
10606;BME280;5350;42.698;23.148;2023-05-03T05:16:45;93999.47;;;12.04;65.51
10606;BME280;5350;42.698;23.148;2023-05-03T05:19:12;94008.34;;;12.08;65.27
10606;BME280;5350;42.698;23.148;2023-05-03T05:21:39;93988.47;;;11.83;66.51
10606;BME280;5350;42.698;23.148;2023-05-03T05:24:07;93995.38;;;11.79;67.89
10606;BME280;5350;42.698;23.148;2023-05-03T05:26:34;94002.72;;;11.82;67.88
10606;BME280;5350;42.698;23.148;2023-05-03T05:29:01;94005.91;;;11.79;70.54
10606;BME280;5350;42.698;23.148;2023-05-03T05:31:28;94001.34;;;11.48;71.36
10606;BME280;5350;42.698;23.148;2023-05-03T05:33:55;94009.53;;;11.46;71.67
10606;BME280;5350;42.698;23.148;2023-05-03T05:36:21;94026.75;;;11.20;73.60
10606;BME280;5350;42.698;23.148;2023-05-03T05:38:48;94018.22;;;11.28;75.11
10606;BME280;5350;42.698;23.148;2023-05-03T05:41:16;94020.91;;;11.23;77.36
10606;BME280;5350;42.698;23.148;2023-05-03T05:43:43;94017.31;;;11.14;77.47
10606;BME280;5350;42.698;23.148;2023-05-03T05:46:10;94021.56;;;11.10;77.25
10606;BME280;5350;42.698;23.148;2023-05-03T05:48:37;94030.97;;;11.16;78.61
10606;BME280;5350;42.698;23.148;2023-05-03T05:51:04;94023.59;;;11.18;80.59
10606;BME280;5350;42.698;23.148;2023-05-03T05:53:31;94017.56;;;11.17;81.40
10606;BME280;5350;42.698;23.148;2023-05-03T05:55:58;94011.16;;;11.23;81.52
10606;BME280;5350;42.698;23.148;2023-05-03T05:58:26;94017.75;;;11.21;83.54
10606;BME280;5350;42.698;23.148;2023-05-03T06:00:56;94027.38;;;11.31;84.48
10606;BME280;5350;42.698;23.148;2023-05-03T06:03:23;94013.34;;;11.35;82.59
10606;BME280;5350;42.698;23.148;2023-05-03T06:05:50;94010.66;;;11.40;83.28
10606;BME280;5350;42.698;23.148;2023-05-03T06:08:17;94020.22;;;11.36;83.58
10606;BME280;5350;42.698;23.148;2023-05-03T06:10:43;94020.13;;;11.41;83.55
10606;BME280;5350;42.698;23.148;2023-05-03T06:13:10;94014.66;;;11.38;86.75
10606;BME280;5350;42.698;23.148;2023-05-03T06:15:39;94007.19;;;11.26;85.01
10606;BME280;5350;42.698;23.148;2023-05-03T06:18:06;94012.00;;;11.19;85.15
10606;BME280;5350;42.698;23.148;2023-05-03T06:20:33;94011.31;;;11.32;84.16
10606;BME280;5350;42.698;23.148;2023-05-03T06:22:59;94003.97;;;11.29;82.53
10606;BME280;5350;42.698;23.148;2023-05-03T06:25:26;94003.31;;;11.37;85.74
10606;BME280;5350;42.698;23.148;2023-05-03T06:27:53;93997.56;;;11.35;85.74
10606;BME280;5350;42.698;23.148;2023-05-03T06:30:20;94008.75;;;11.46;86.55
10606;BME280;5350;42.698;23.148;2023-05-03T06:32:49;94006.94;;;11.41;84.45
10606;BME280;5350;42.698;23.148;2023-05-03T06:35:16;94002.63;;;11.50;83.91
10606;BME280;5350;42.698;23.148;2023-05-03T06:37:43;94003.56;;;11.59;82.72
10606;BME280;5350;42.698;23.148;2023-05-03T06:40:11;94007.13;;;11.68;80.09
10606;BME280;5350;42.698;23.148;2023-05-03T06:42:37;94001.22;;;11.76;79.35
10606;BME280;5350;42.698;23.148;2023-05-03T06:45:05;93998.69;;;11.85;78.92
10606;BME280;5350;42.698;23.148;2023-05-03T06:47:32;94000.13;;;11.96;79.39
10606;BME280;5350;42.698;23.148;2023-05-03T06:50:00;93996.66;;;11.82;73.70
10606;BME280;5350;42.698;23.148;2023-05-03T06:52:27;93997.44;;;11.82;77.37
10606;BME280;5350;42.698;23.148;2023-05-03T06:54:54;93990.59;;;11.81;75.24
10606;BME280;5350;42.698;23.148;2023-05-03T06:57:20;93986.81;;;11.87;75.14
10606;BME280;5350;42.698;23.148;2023-05-03T06:59:47;93982.69;;;11.81;74.45
10606;BME280;5350;42.698;23.148;2023-05-03T07:02:14;93964.84;;;11.78;72.18
10606;BME280;5350;42.698;23.148;2023-05-03T07:04:40;93987.03;;;11.91;72.04
10606;BME280;5350;42.698;23.148;2023-05-03T07:07:08;93991.53;;;11.90;74.18
10606;BME280;5350;42.698;23.148;2023-05-03T07:09:35;93992.09;;;11.87;71.56
10606;BME280;5350;42.698;23.148;2023-05-03T07:12:02;93995.63;;;11.96;72.34
10606;BME280;5350;42.698;23.148;2023-05-03T07:14:29;93991.53;;;11.90;70.65
10606;BME280;5350;42.698;23.148;2023-05-03T07:16:56;93993.44;;;12.03;72.00
10606;BME280;5350;42.698;23.148;2023-05-03T07:19:23;94004.38;;;12.11;71.59
10606;BME280;5350;42.698;23.148;2023-05-03T07:21:49;94007.69;;;12.16;70.68
10606;BME280;5350;42.698;23.148;2023-05-03T07:24:18;94016.22;;;12.27;69.77
10606;BME280;5350;42.698;23.148;2023-05-03T07:26:44;94031.25;;;12.45;68.27
10606;BME280;5350;42.698;23.148;2023-05-03T07:29:11;94029.88;;;12.47;68.82
10606;BME280;5350;42.698;23.148;2023-05-03T07:31:38;94008.47;;;12.49;69.47
10606;BME280;5350;42.698;23.148;2023-05-03T07:34:04;94008.69;;;12.66;69.65
10606;BME280;5350;42.698;23.148;2023-05-03T07:36:31;94005.19;;;12.84;69.20
10606;BME280;5350;42.698;23.148;2023-05-03T07:38:58;93995.78;;;12.92;68.62
10606;BME280;5350;42.698;23.148;2023-05-03T07:41:26;93998.97;;;13.07;68.98
10606;BME280;5350;42.698;23.148;2023-05-03T07:43:53;94003.16;;;13.08;67.58
10606;BME280;5350;42.698;23.148;2023-05-03T07:46:20;94002.44;;;13.03;65.70
10606;BME280;5350;42.698;23.148;2023-05-03T07:48:47;94006.75;;;13.12;65.08
10606;BME280;5350;42.698;23.148;2023-05-03T07:51:14;93998.75;;;13.17;64.65
10606;BME280;5350;42.698;23.148;2023-05-03T07:53:40;93999.53;;;13.18;66.23
10606;BME280;5350;42.698;23.148;2023-05-03T07:56:07;94004.03;;;13.17;65.41
10606;BME280;5350;42.698;23.148;2023-05-03T07:58:35;93999.22;;;13.19;64.88
10606;BME280;5350;42.698;23.148;2023-05-03T08:01:02;93998.75;;;13.17;64.91
10606;BME280;5350;42.698;23.148;2023-05-03T08:03:29;93996.16;;;13.39;65.52
10606;BME280;5350;42.698;23.148;2023-05-03T08:05:55;93991.25;;;13.60;64.99
10606;BME280;5350;42.698;23.148;2023-05-03T08:08:22;93998.31;;;13.73;64.49
10606;BME280;5350;42.698;23.148;2023-05-03T08:10:51;93999.84;;;13.66;65.88
10606;BME280;5350;42.698;23.148;2023-05-03T08:13:17;94004.78;;;13.81;64.05
10606;BME280;5350;42.698;23.148;2023-05-03T08:15:48;94007.06;;;13.96;63.65
10606;BME280;5350;42.698;23.148;2023-05-03T08:18:15;94018.66;;;14.08;60.99
10606;BME280;5350;42.698;23.148;2023-05-03T08:20:41;94017.25;;;14.24;64.35
10606;BME280;5350;42.698;23.148;2023-05-03T08:23:09;94020.63;;;14.38;65.17
10606;BME280;5350;42.698;23.148;2023-05-03T08:25:35;94014.84;;;14.67;61.69
10606;BME280;5350;42.698;23.148;2023-05-03T08:28:02;94009.97;;;14.83;61.87
10606;BME280;5350;42.698;23.148;2023-05-03T08:30:29;94004.47;;;15.18;58.05
10606;BME280;5350;42.698;23.148;2023-05-03T08:32:57;93997.66;;;15.35;58.37
10606;BME280;5350;42.698;23.148;2023-05-03T08:35:24;93995.13;;;15.30;58.08
10606;BME280;5350;42.698;23.148;2023-05-03T08:37:52;93999.84;;;15.41;57.89
10606;BME280;5350;42.698;23.148;2023-05-03T08:40:20;94038.09;;;15.49;56.94
10606;BME280;5350;42.698;23.148;2023-05-03T08:42:48;94000.81;;;15.45;56.99
10606;BME280;5350;42.698;23.148;2023-05-03T08:45:15;93999.59;;;15.60;55.82
10606;BME280;5350;42.698;23.148;2023-05-03T08:47:42;94008.81;;;15.88;56.10
10606;BME280;5350;42.698;23.148;2023-05-03T08:50:13;94000.53;;;15.98;56.34
10606;BME280;5350;42.698;23.148;2023-05-03T08:52:41;93997.13;;;16.06;53.47
10606;BME280;5350;42.698;23.148;2023-05-03T08:55:09;94011.16;;;16.15;55.94
10606;BME280;5350;42.698;23.148;2023-05-03T08:57:36;94004.09;;;16.36;55.39
10606;BME280;5350;42.698;23.148;2023-05-03T09:00:04;94011.13;;;16.32;53.99
10606;BME280;5350;42.698;23.148;2023-05-03T09:02:35;94005.66;;;16.37;54.98
10606;BME280;5350;42.698;23.148;2023-05-03T09:05:04;94012.06;;;16.45;53.11
10606;BME280;5350;42.698;23.148;2023-05-03T09:07:33;94014.53;;;16.58;52.60
10606;BME280;5350;42.698;23.148;2023-05-03T09:10:00;94007.63;;;16.74;51.94
10606;BME280;5350;42.698;23.148;2023-05-03T09:12:33;94005.03;;;17.04;52.64
10606;BME280;5350;42.698;23.148;2023-05-03T09:15:00;93997.56;;;16.97;49.28
10606;BME280;5350;42.698;23.148;2023-05-03T09:17:28;93990.22;;;16.86;50.85
10606;BME280;5350;42.698;23.148;2023-05-03T09:19:56;93993.66;;;16.95;50.56
10606;BME280;5350;42.698;23.148;2023-05-03T09:22:25;93989.63;;;17.18;52.49
10606;BME280;5350;42.698;23.148;2023-05-03T09:24:54;93984.88;;;17.32;51.45
10606;BME280;5350;42.698;23.148;2023-05-03T09:27:22;93979.75;;;17.27;49.16
10606;BME280;5350;42.698;23.148;2023-05-03T09:29:49;93990.91;;;17.49;50.26
10606;BME280;5350;42.698;23.148;2023-05-03T09:32:17;93974.63;;;17.42;49.44
10606;BME280;5350;42.698;23.148;2023-05-03T09:34:44;93974.75;;;17.54;52.15
10606;BME280;5350;42.698;23.148;2023-05-03T09:37:11;93974.06;;;17.66;49.65
10606;BME280;5350;42.698;23.148;2023-05-03T09:39:40;93973.47;;;17.81;51.57
10606;BME280;5350;42.698;23.148;2023-05-03T09:42:12;93966.69;;;17.84;48.91
10606;BME280;5350;42.698;23.148;2023-05-03T09:44:40;93969.50;;;17.87;49.79
10606;BME280;5350;42.698;23.148;2023-05-03T09:47:07;93962.97;;;17.85;47.98
10606;BME280;5350;42.698;23.148;2023-05-03T09:49:34;93954.50;;;18.03;48.67
10606;BME280;5350;42.698;23.148;2023-05-03T09:52:02;93958.56;;;18.21;48.91
10606;BME280;5350;42.698;23.148;2023-05-03T09:54:29;93949.91;;;18.24;46.40
10606;BME280;5350;42.698;23.148;2023-05-03T09:56:56;93957.94;;;18.36;46.84
10606;BME280;5350;42.698;23.148;2023-05-03T09:59:25;93961.34;;;18.58;48.09
10606;BME280;5350;42.698;23.148;2023-05-03T10:01:55;93956.94;;;18.62;46.42
10606;BME280;5350;42.698;23.148;2023-05-03T10:04:24;93959.59;;;18.74;49.37
10606;BME280;5350;42.698;23.148;2023-05-03T10:06:54;93953.44;;;18.94;46.45
10606;BME280;5350;42.698;23.148;2023-05-03T10:09:27;93948.50;;;18.84;45.33
10606;BME280;5350;42.698;23.148;2023-05-03T10:11:58;93945.19;;;19.11;46.73
10606;BME280;5350;42.698;23.148;2023-05-03T10:14:27;93937.97;;;19.11;45.95
10606;BME280;5350;42.698;23.148;2023-05-03T10:16:58;93931.84;;;19.11;45.63
10606;BME280;5350;42.698;23.148;2023-05-03T10:19:29;93935.09;;;19.41;48.34
10606;BME280;5350;42.698;23.148;2023-05-03T10:22:04;93926.25;;;19.64;47.63
10606;BME280;5350;42.698;23.148;2023-05-03T10:24:31;93929.91;;;19.72;45.93
10606;BME280;5350;42.698;23.148;2023-05-03T10:26:58;93914.44;;;19.77;46.79
10606;BME280;5350;42.698;23.148;2023-05-03T10:29:47;93914.25;;;19.70;44.04
10606;BME280;5350;42.698;23.148;2023-05-03T10:32:39;93906.50;;;19.53;46.47
10606;BME280;5350;42.698;23.148;2023-05-03T10:35:08;93915.34;;;19.69;45.87
10606;BME280;5350;42.698;23.148;2023-05-03T10:37:35;93914.59;;;19.69;44.76
10606;BME280;5350;42.698;23.148;2023-05-03T10:40:07;93912.75;;;19.85;46.12
10606;BME280;5350;42.698;23.148;2023-05-03T10:42:35;93925.72;;;19.59;44.99
10606;BME280;5350;42.698;23.148;2023-05-03T10:45:06;93919.53;;;19.82;45.91
10606;BME280;5350;42.698;23.148;2023-05-03T10:47:33;93924.00;;;19.78;45.98
10606;BME280;5350;42.698;23.148;2023-05-03T10:50:25;93920.84;;;19.88;44.01
10606;BME280;5350;42.698;23.148;2023-05-03T10:52:52;93911.75;;;19.89;44.42
10606;BME280;5350;42.698;23.148;2023-05-03T10:55:20;93914.56;;;20.09;43.52
10606;BME280;5350;42.698;23.148;2023-05-03T10:57:53;93910.84;;;20.25;45.76
10606;BME280;5350;42.698;23.148;2023-05-03T11:00:30;93913.09;;;20.39;44.48
10606;BME280;5350;42.698;23.148;2023-05-03T11:05:58;93916.13;;;20.53;44.47
10606;BME280;5350;42.698;23.148;2023-05-03T11:08:25;93912.25;;;20.50;44.27
10606;BME280;5350;42.698;23.148;2023-05-03T11:10:56;93911.59;;;20.26;44.36
10606;BME280;5350;42.698;23.148;2023-05-03T11:13:23;93903.88;;;19.81;45.08
10606;BME280;5350;42.698;23.148;2023-05-03T11:15:52;93870.31;;;19.68;45.34
10606;BME280;5350;42.698;23.148;2023-05-03T11:18:19;93905.09;;;19.83;46.66
10606;BME280;5350;42.698;23.148;2023-05-03T11:20:46;93901.38;;;19.88;46.05
10606;BME280;5350;42.698;23.148;2023-05-03T11:23:13;93907.81;;;19.59;47.66
10606;BME280;5350;42.698;23.148;2023-05-03T11:25:40;93909.34;;;19.72;46.74
10606;BME280;5350;42.698;23.148;2023-05-03T11:28:07;93909.06;;;19.89;46.18
10606;BME280;5350;42.698;23.148;2023-05-03T11:30:34;93893.56;;;19.67;46.85
10606;BME280;5350;42.698;23.148;2023-05-03T11:33:04;93892.94;;;19.46;48.03
10606;BME280;5350;42.698;23.148;2023-05-03T11:35:31;93885.16;;;19.53;47.43
10606;BME280;5350;42.698;23.148;2023-05-03T11:37:58;93883.13;;;19.62;47.27
10606;BME280;5350;42.698;23.148;2023-05-03T11:40:25;93875.59;;;19.80;47.06
10606;BME280;5350;42.698;23.148;2023-05-03T11:42:56;93875.47;;;19.88;47.83
10606;BME280;5350;42.698;23.148;2023-05-03T11:45:25;93873.44;;;20.25;47.14
10606;BME280;5350;42.698;23.148;2023-05-03T11:47:52;93860.88;;;20.41;46.64
10606;BME280;5350;42.698;23.148;2023-05-03T11:50:41;93851.72;;;20.27;45.61
10606;BME280;5350;42.698;23.148;2023-05-03T11:53:09;93838.66;;;20.10;45.62
10606;BME280;5350;42.698;23.148;2023-05-03T11:55:37;93830.22;;;20.08;48.16
10606;BME280;5350;42.698;23.148;2023-05-03T11:58:07;93828.59;;;20.19;48.69
10606;BME280;5350;42.698;23.148;2023-05-03T12:00:35;93827.84;;;20.49;49.78
10606;BME280;5350;42.698;23.148;2023-05-03T12:03:02;93819.97;;;21.03;48.63
10606;BME280;5350;42.698;23.148;2023-05-03T12:05:30;93815.69;;;21.53;45.03
10606;BME280;5350;42.698;23.148;2023-05-03T12:07:57;93810.31;;;21.91;43.91
10606;BME280;5350;42.698;23.148;2023-05-03T12:10:30;93801.81;;;22.08;42.95
10606;BME280;5350;42.698;23.148;2023-05-03T12:12:58;93811.75;;;22.07;43.83
10606;BME280;5350;42.698;23.148;2023-05-03T12:15:29;93805.59;;;22.26;42.77
10606;BME280;5350;42.698;23.148;2023-05-03T12:17:58;93798.91;;;22.39;42.10
10606;BME280;5350;42.698;23.148;2023-05-03T12:20:26;93807.78;;;22.43;42.37
10606;BME280;5350;42.698;23.148;2023-05-03T12:22:59;93797.72;;;22.59;43.38
10606;BME280;5350;42.698;23.148;2023-05-03T12:25:27;93796.28;;;22.88;41.49
10606;BME280;5350;42.698;23.148;2023-05-03T12:27:55;93790.34;;;22.07;41.83
10606;BME280;5350;42.698;23.148;2023-05-03T12:30:23;93814.78;;;21.83;44.00
10606;BME280;5350;42.698;23.148;2023-05-03T12:32:50;93789.16;;;21.09;45.11
10606;BME280;5350;42.698;23.148;2023-05-03T12:35:17;93798.53;;;21.19;45.12
10606;BME280;5350;42.698;23.148;2023-05-03T12:37:45;93796.47;;;20.97;44.70
10606;BME280;5350;42.698;23.148;2023-05-03T12:40:14;93794.34;;;20.52;45.80
10606;BME280;5350;42.698;23.148;2023-05-03T12:42:42;93802.88;;;19.99;48.07
10606;BME280;5350;42.698;23.148;2023-05-03T12:45:10;93803.94;;;19.39;49.43
10606;BME280;5350;42.698;23.148;2023-05-03T12:47:37;93802.81;;;18.88;50.60
10606;BME280;5350;42.698;23.148;2023-05-03T12:50:04;93802.63;;;18.57;51.90
10606;BME280;5350;42.698;23.148;2023-05-03T12:52:33;93804.25;;;18.25;53.82
10606;BME280;5350;42.698;23.148;2023-05-03T12:55:01;93797.47;;;18.03;54.57
10606;BME280;5350;42.698;23.148;2023-05-03T12:57:29;93797.88;;;17.93;55.09
10606;BME280;5350;42.698;23.148;2023-05-03T12:59:56;93789.38;;;17.67;55.48
10606;BME280;5350;42.698;23.148;2023-05-03T13:02:23;93806.28;;;17.30;56.76
10606;BME280;5350;42.698;23.148;2023-05-03T13:04:50;93793.00;;;16.89;59.48
10606;BME280;5350;42.698;23.148;2023-05-03T13:07:20;93792.72;;;16.82;60.39